Time;durP1;ratioP1;P1;durP2;ratioP2;P2;SDS_P1;SDS_P2;PMS_P1;PMS_P2;Temp;Humidity;BMP_temperature;BMP_pressure;BME280_temperature;BME280_humidity;BME280_pressure;Samples;Min_cycle;Max_cycle;Signal;HPM_P1;HPM_P2
2020/12/03 00:01:13;;;;;;;46.77;22.83;;;;;;;-5.30;77.61;97445.50;1796531;78;21249;-79
2020/12/03 00:03:54;;;;;;;49.27;26.07;;;;;;;-5.26;77.78;97445.89;1793447;80;21274;-80
2020/12/03 00:06:30;;;;;;;26.63;11.00;;;;;;;-5.34;77.33;97442.98;1796311;78;21110;-80
2020/12/03 00:09:03;;;;;;;27.37;11.80;;;;;;;-5.28;77.40;97441.20;1808854;78;21104;-79
2020/12/03 00:11:36;;;;;;;31.53;13.07;;;;;;;-5.45;77.01;97434.54;1831091;77;21278;-78
2020/12/03 00:14:07;;;;;;;42.83;21.97;;;;;;;-5.60;77.26;97434.68;1831607;78;21167;-79
2020/12/03 00:16:35;;;;;;;32.93;16.07;;;;;;;-5.74;77.35;97430.55;1825394;78;21237;-79
2020/12/03 00:19:06;;;;;;;48.63;24.47;;;;;;;-5.83;77.71;97443.48;1828648;78;21278;-77
2020/12/03 00:21:48;;;;;;;23.27;10.30;;;;;;;-5.92;78.09;97441.00;1823957;78;21127;-79
2020/12/03 00:24:21;;;;;;;47.50;24.70;;;;;;;-5.93;78.10;97448.28;1802445;78;21273;-76
2020/12/03 00:26:48;;;;;;;38.37;18.80;;;;;;;-6.09;78.18;97453.59;1810048;78;21278;-77
2020/12/03 00:29:19;;;;;;;45.37;24.77;;;;;;;-6.15;78.52;97444.22;1777583;78;21160;-78
2020/12/03 00:31:48;;;;;;;50.27;24.17;;;;;;;-6.18;78.71;97455.78;1802742;78;21107;-76
2020/12/03 00:34:18;;;;;;;54.67;25.57;;;;;;;-6.18;78.53;97462.64;1816275;78;21257;-79
2020/12/03 00:36:47;;;;;;;50.33;25.27;;;;;;;-6.09;78.80;97450.15;1830711;78;21123;-79
2020/12/03 00:39:16;;;;;;;49.67;25.53;;;;;;;-5.97;78.88;97459.84;1816184;78;21491;-80
2020/12/03 00:41:54;;;;;;;48.30;25.13;;;;;;;-5.87;78.82;97468.75;1798475;78;21247;-78
2020/12/03 00:44:23;;;;;;;46.70;25.03;;;;;;;-5.77;78.76;97470.37;1830917;78;21270;-79
2020/12/03 00:46:55;;;;;;;47.30;25.67;;;;;;;-5.73;78.19;97464.36;1828820;78;21230;-79
2020/12/03 00:49:23;;;;;;;50.80;25.33;;;;;;;-5.68;78.37;97466.88;1805835;78;21234;-78
2020/12/03 00:51:52;;;;;;;54.47;26.43;;;;;;;-5.53;78.64;97469.30;1810521;78;21121;-80
2020/12/03 00:54:21;;;;;;;61.20;30.57;;;;;;;-5.41;78.11;97456.75;1796073;78;21123;-81
2020/12/03 00:56:51;;;;;;;63.53;29.50;;;;;;;-5.36;78.01;97460.13;1807978;78;21257;-79
2020/12/03 00:59:18;;;;;;;69.03;31.33;;;;;;;-5.28;78.07;97472.88;1823733;78;21301;-80
2020/12/03 01:01:45;;;;;;;62.70;28.50;;;;;;;-5.12;78.06;97473.56;1799891;78;21288;-78
2020/12/03 01:04:12;;;;;;;63.30;30.30;;;;;;;-5.04;77.93;97464.48;1808883;79;21246;-79
2020/12/03 01:06:40;;;;;;;65.53;30.53;;;;;;;-4.94;77.81;97453.64;1789586;79;21265;-78
2020/12/03 01:09:08;;;;;;;64.90;29.77;;;;;;;-4.85;77.31;97463.81;1783266;79;21186;-79
2020/12/03 01:11:36;;;;;;;66.80;31.10;;;;;;;-4.83;77.15;97457.38;1825132;78;21128;-79
2020/12/03 01:14:05;;;;;;;57.70;30.60;;;;;;;-4.79;77.19;97454.75;1825049;78;21171;-78
2020/12/03 01:16:32;;;;;;;74.80;33.03;;;;;;;-4.72;77.06;97443.91;1800459;78;21242;-78
2020/12/03 01:19:00;;;;;;;59.83;30.93;;;;;;;-4.67;77.00;97439.99;1798190;79;21249;-77
2020/12/03 01:21:27;;;;;;;65.90;33.03;;;;;;;-4.64;76.80;97442.53;1789648;79;21643;-80
2020/12/03 01:23:54;;;;;;;63.00;31.67;;;;;;;-4.55;76.65;97441.11;1819039;79;21269;-80
2020/12/03 01:26:22;;;;;;;60.47;30.23;;;;;;;-4.53;76.42;97434.23;1824122;79;21208;-78
2020/12/03 01:28:50;;;;;;;63.60;32.73;;;;;;;-4.63;76.03;97437.80;1825343;79;21255;-78
2020/12/03 01:31:18;;;;;;;62.50;29.63;;;;;;;-4.73;75.78;97437.06;1804924;78;21114;-79
2020/12/03 01:33:47;;;;;;;72.40;35.27;;;;;;;-4.72;75.88;97433.20;1802104;79;21145;-78
2020/12/03 01:36:16;;;;;;;82.10;35.03;;;;;;;-4.67;75.90;97431.86;1825093;79;21137;-77
2020/12/03 01:38:44;;;;;;;78.87;37.53;;;;;;;-4.59;75.79;97428.73;1809379;78;21234;-80
2020/12/03 01:41:11;;;;;;;78.60;36.03;;;;;;;-4.55;75.78;97427.80;1792429;79;21530;-76
2020/12/03 01:43:43;;;;;;;85.13;38.27;;;;;;;-4.49;75.62;97433.30;1821554;78;21247;-77
2020/12/03 01:46:12;;;;;;;71.60;33.60;;;;;;;-4.42;75.38;97436.22;1825186;79;21239;-78
2020/12/03 01:48:55;;;;;;;76.13;36.13;;;;;;;-4.43;75.23;97437.09;1796326;79;21131;-77
2020/12/03 01:51:36;;;;;;;72.30;32.27;;;;;;;-4.44;75.27;97434.09;1780271;79;21272;-79
2020/12/03 01:54:09;;;;;;;75.93;35.67;;;;;;;-4.45;75.22;97423.38;1775598;80;21290;-79
2020/12/03 01:56:56;;;;;;;84.50;35.83;;;;;;;-4.52;75.17;97415.77;1805800;79;21302;-77
2020/12/03 01:59:28;;;;;;;79.53;35.83;;;;;;;-4.47;75.39;97416.56;1812964;79;21245;-78
2020/12/03 02:02:02;;;;;;;78.60;37.90;;;;;;;-4.47;75.32;97412.25;1790977;78;21128;-80
2020/12/03 02:04:29;;;;;;;78.83;35.47;;;;;;;-4.41;75.36;97404.88;1828969;78;21116;-80
2020/12/03 02:07:01;;;;;;;87.53;38.53;;;;;;;-4.31;75.16;97406.86;1816145;78;21234;-79
2020/12/03 02:09:41;;;;;;;75.33;35.97;;;;;;;-4.29;75.01;97411.14;1786213;80;21110;-77
2020/12/03 02:12:08;;;;;;;80.93;36.00;;;;;;;-4.38;74.87;97397.13;1785929;80;21150;-79
2020/12/03 02:14:35;;;;;;;89.60;39.53;;;;;;;-4.34;74.58;97398.76;1791407;78;21664;-77
2020/12/03 02:17:04;;;;;;;73.20;34.53;;;;;;;-4.35;73.95;97404.78;1829058;78;21255;-79
2020/12/03 02:19:32;;;;;;;82.17;36.33;;;;;;;-4.35;74.64;97401.37;1829251;78;21159;-81
2020/12/03 02:22:09;;;;;;;60.03;27.00;;;;;;;-4.35;74.48;97402.20;1829572;78;21266;-81
2020/12/03 02:24:40;;;;;;;60.13;25.83;;;;;;;-4.39;74.44;97397.55;1829658;78;21242;-80
2020/12/03 02:27:12;;;;;;;78.73;35.57;;;;;;;-4.50;74.43;97394.28;1829487;78;21160;-79
2020/12/03 02:29:40;;;;;;;78.63;36.57;;;;;;;-4.60;74.17;97391.01;1829211;78;21132;-80
2020/12/03 02:32:09;;;;;;;85.93;36.27;;;;;;;-4.61;74.65;97385.90;1828966;78;21112;-79
2020/12/03 02:34:38;;;;;;;86.63;36.87;;;;;;;-4.66;74.55;97388.95;1828818;78;21230;-77
2020/12/03 02:37:06;;;;;;;78.33;35.87;;;;;;;-4.64;74.72;97382.08;1801379;78;21317;-78
2020/12/03 02:39:36;;;;;;;78.00;34.07;;;;;;;-4.63;74.72;97379.92;1829291;78;21527;-78
2020/12/03 02:42:08;;;;;;;80.50;39.27;;;;;;;-4.61;74.69;97371.30;1812866;78;21126;-80
2020/12/03 02:44:42;;;;;;;74.63;34.47;;;;;;;-4.76;74.10;97368.52;1786045;78;21158;-79
2020/12/03 02:47:11;;;;;;;79.30;34.87;;;;;;;-4.85;74.45;97364.79;1819159;78;21115;-79
2020/12/03 02:49:42;;;;;;;90.03;37.63;;;;;;;-4.97;74.72;97359.84;1793307;78;21147;-79
2020/12/03 02:52:12;;;;;;;76.80;34.70;;;;;;;-5.04;74.64;97354.77;1801620;78;21118;-79
2020/12/03 02:54:41;;;;;;;74.53;34.77;;;;;;;-4.99;75.24;97361.13;1795010;78;21242;-78
2020/12/03 02:57:10;;;;;;;83.80;36.70;;;;;;;-5.16;74.97;97353.67;1828858;78;21688;-78
2020/12/03 02:59:38;;;;;;;72.43;33.23;;;;;;;-5.17;75.40;97358.39;1819932;78;21170;-79
2020/12/03 03:02:07;;;;;;;73.73;33.67;;;;;;;-5.17;75.45;97355.38;1764990;81;21331;-79
2020/12/03 03:04:35;;;;;;;65.03;30.53;;;;;;;-5.23;75.49;97342.61;1736517;83;21452;-78
2020/12/03 03:07:03;;;;;;;76.27;35.40;;;;;;;-5.27;75.48;97340.10;1736822;83;21157;-79
2020/12/03 03:09:31;;;;;;;71.83;32.90;;;;;;;-5.37;75.52;97341.92;1736795;83;21211;-79
2020/12/03 03:12:00;;;;;;;63.30;29.20;;;;;;;-5.45;75.59;97347.18;1739089;81;21150;-80
2020/12/03 03:14:32;;;;;;;68.43;30.53;;;;;;;-5.49;75.70;97351.92;1766960;81;21698;-78
2020/12/03 03:17:00;;;;;;;69.50;34.57;;;;;;;-5.59;75.72;97357.63;1755047;81;21260;-77
2020/12/03 03:19:27;;;;;;;73.80;33.77;;;;;;;-5.59;76.03;97358.91;1748654;81;21142;-78
2020/12/03 03:21:56;;;;;;;69.43;33.30;;;;;;;-5.53;76.34;97356.25;1766332;81;21154;-78
2020/12/03 03:24:23;;;;;;;77.07;34.20;;;;;;;-5.51;76.14;97353.66;1766449;81;21130;-76
2020/12/03 03:26:51;;;;;;;73.10;34.33;;;;;;;-5.41;76.46;97353.96;1766745;81;21261;-79
2020/12/03 03:29:19;;;;;;;70.50;33.13;;;;;;;-5.37;76.14;97358.63;1766411;81;21267;-78
2020/12/03 03:31:48;;;;;;;70.33;33.83;;;;;;;-5.27;76.35;97367.92;1766694;81;21268;-78
2020/12/03 03:34:15;;;;;;;77.73;35.40;;;;;;;-5.22;76.45;97364.01;1736734;81;21300;-78
2020/12/03 03:36:43;;;;;;;72.03;35.20;;;;;;;-5.11;76.37;97363.89;1735333;82;21147;-79
2020/12/03 03:39:18;;;;;;;76.07;37.30;;;;;;;-5.07;76.05;97351.39;1735785;81;21588;-78
2020/12/03 03:41:47;;;;;;;80.33;37.20;;;;;;;-5.07;75.69;97352.26;1734722;83;21193;-79
2020/12/03 03:44:15;;;;;;;66.43;29.43;;;;;;;-5.05;75.55;97351.77;1735255;81;21257;-78
2020/12/03 03:46:43;;;;;;;68.97;33.97;;;;;;;-5.00;75.46;97344.45;1735994;81;21528;-80
2020/12/03 03:49:10;;;;;;;76.00;34.17;;;;;;;-5.04;75.09;97350.91;1755213;81;21134;-80
2020/12/03 03:51:38;;;;;;;77.53;34.97;;;;;;;-5.09;75.21;97343.70;1767192;81;21296;-80
2020/12/03 03:54:05;;;;;;;72.80;33.97;;;;;;;-4.98;75.27;97345.28;1767571;81;21165;-80
2020/12/03 03:56:33;;;;;;;67.67;31.27;;;;;;;-4.97;75.05;97339.27;1754937;81;21119;-81
2020/12/03 03:59:00;;;;;;;77.30;34.93;;;;;;;-4.97;74.86;97340.11;1763493;81;21133;-77
2020/12/03 04:01:27;;;;;;;75.87;35.67;;;;;;;-5.09;74.70;97334.71;1735383;82;21151;-80
2020/12/03 04:03:55;;;;;;;69.27;33.43;;;;;;;-5.08;74.93;97329.12;1751610;82;21775;-78
2020/12/03 04:06:22;;;;;;;73.00;33.97;;;;;;;-5.13;74.86;97335.61;1757289;81;21255;-79
2020/12/03 04:08:49;;;;;;;73.67;34.37;;;;;;;-5.10;75.25;97341.14;1757459;82;21299;-79
2020/12/03 04:11:17;;;;;;;69.43;33.83;;;;;;;-5.16;75.02;97343.38;1778800;79;21154;-79
2020/12/03 04:13:45;;;;;;;81.70;36.23;;;;;;;-5.12;75.42;97342.45;1817315;79;21152;-80
2020/12/03 04:16:13;;;;;;;80.10;36.57;;;;;;;-5.03;75.47;97339.75;1818912;79;21126;-77
2020/12/03 04:18:40;;;;;;;71.50;34.37;;;;;;;-4.95;75.40;97343.93;1786817;79;21256;-80
2020/12/03 04:21:10;;;;;;;67.40;33.20;;;;;;;-4.89;75.49;97345.15;1786199;79;21143;-79
2020/12/03 04:23:37;;;;;;;72.50;34.17;;;;;;;-4.81;75.15;97339.45;1765732;80;21117;-80
2020/12/03 04:26:04;;;;;;;66.80;32.60;;;;;;;-4.89;74.97;97325.86;1776514;79;21147;-79
2020/12/03 04:28:32;;;;;;;63.93;33.23;;;;;;;-4.88;75.19;97322.42;1801278;79;21245;-79
2020/12/03 04:30:59;;;;;;;24.63;10.07;;;;;;;-4.75;75.49;97316.65;1809412;79;21119;-80
2020/12/03 04:33:27;;;;;;;56.03;26.40;;;;;;;-4.67;74.68;97310.95;1825273;79;21242;-78
2020/12/03 04:35:54;;;;;;;71.83;34.57;;;;;;;-4.90;74.41;97310.02;1825286;78;21135;-80
2020/12/03 04:38:24;;;;;;;71.97;33.53;;;;;;;-5.15;74.39;97315.95;1801420;78;21238;-80
2020/12/03 04:40:53;;;;;;;71.37;35.67;;;;;;;-5.22;75.01;97315.17;1785227;80;21277;-78
2020/12/03 04:43:59;;;;;;;59.70;27.70;;;;;;;-5.17;75.12;97309.10;1793449;79;21237;-79
2020/12/03 04:46:38;;;;;;;76.40;33.70;;;;;;;-5.22;74.82;97305.77;1797996;79;21238;-80
2020/12/03 04:49:44;;;;;;;66.37;33.60;;;;;;;-5.40;74.91;97305.56;1824941;79;21293;-78
2020/12/03 04:52:51;;;;;;;75.17;35.83;;;;;;;-5.29;75.47;97308.00;1773114;79;21246;-78
2020/12/03 04:55:28;;;;;;;72.83;32.80;;;;;;;-5.15;75.45;97305.66;1647427;85;21341;-79
2020/12/03 04:58:18;;;;;;;73.78;34.25;;;;;;;-5.06;75.48;97313.24;1661425;85;21206;-79
2020/12/03 05:01:00;;;;;;;72.67;34.10;;;;;;;-4.95;75.41;97316.52;1755598;80;21271;-79
2020/12/03 05:03:42;;;;;;;67.97;33.07;;;;;;;-4.84;75.31;97307.34;1793393;80;21418;-77
2020/12/03 05:06:37;;;;;;;68.23;33.30;;;;;;;-4.82;74.53;97307.30;1798307;79;21105;-79
2020/12/03 05:09:27;;;;;;;64.83;31.37;;;;;;;-4.93;74.27;97301.92;1798310;79;21276;-80
2020/12/03 05:12:01;;;;;;;71.67;34.23;;;;;;;-4.95;74.42;97294.66;1799002;78;21174;-79
2020/12/03 05:14:42;;;;;;;63.30;31.03;;;;;;;-5.02;74.71;97293.89;1792337;78;21552;-78
2020/12/03 05:18:01;;;;;;;56.93;27.73;;;;;;;-5.03;74.71;97294.77;1794145;78;21183;-78
2020/12/03 05:20:51;;;;;;;45.50;21.00;;;;;;;-5.21;74.52;97293.33;1797411;78;21112;-78
2020/12/03 05:23:34;;;;;;;60.40;29.97;;;;;;;-5.33;75.16;97308.45;1795319;78;21119;-80
2020/12/03 05:26:08;;;;;;;41.33;20.33;;;;;;;-5.37;75.39;97308.52;1828249;78;21254;-79
2020/12/03 05:29:01;;;;;;;59.30;31.47;;;;;;;-5.45;75.84;97304.78;1823606;78;21609;-79
2020/12/03 05:31:41;;;;;;;60.10;31.10;;;;;;;-5.52;75.71;97316.02;1766522;81;21246;-79
2020/12/03 05:34:15;;;;;;;59.03;31.77;;;;;;;-5.54;75.91;97313.45;1780053;78;21596;-77
2020/12/03 05:37:00;;;;;;;43.77;22.10;;;;;;;-5.43;75.98;97312.46;1787686;80;21142;-81
2020/12/03 05:39:42;;;;;;;50.33;23.10;;;;;;;-5.44;75.75;97304.34;1754118;78;21124;-80
2020/12/03 05:42:16;;;;;;;49.33;22.37;;;;;;;-5.51;75.95;97304.84;1825517;78;21313;-80
2020/12/03 05:44:51;;;;;;;50.73;26.30;;;;;;;-5.62;76.00;97300.30;1827321;78;21140;-80
2020/12/03 05:47:35;;;;;;;49.73;25.70;;;;;;;-5.68;76.46;97294.36;1802962;78;21262;-80
2020/12/03 05:50:16;;;;;;;21.70;11.13;;;;;;;-5.63;76.72;97278.89;1794853;78;21217;-79
2020/12/03 05:53:10;;;;;;;48.80;24.53;;;;;;;-5.60;76.51;97280.14;1764599;81;21553;-79
2020/12/03 05:55:38;;;;;;;57.80;27.53;;;;;;;-5.68;76.55;97288.37;1764645;81;21151;-79
2020/12/03 05:58:29;;;;;;;54.40;28.83;;;;;;;-5.63;76.88;97290.89;1782395;78;21280;-80
2020/12/03 06:01:21;;;;;;;56.40;26.97;;;;;;;-5.66;76.62;97288.77;1787822;80;21246;-78
2020/12/03 06:04:09;;;;;;;56.13;29.43;;;;;;;-5.69;76.84;97291.81;1797921;78;21161;-79
2020/12/03 06:06:54;;;;;;;51.57;28.70;;;;;;;-5.68;77.99;97285.36;1777272;80;21857;-79
2020/12/03 06:09:53;;;;;;;34.90;14.90;;;;;;;-5.70;77.80;97300.38;1751751;82;21309;-81
2020/12/03 06:12:41;;;;;;;27.60;11.93;;;;;;;-5.65;77.26;97292.17;1750831;80;21235;-79
2020/12/03 06:15:43;;;;;;;31.73;18.30;;;;;;;-5.62;77.44;97283.61;1751451;82;21310;-81
2020/12/03 06:18:42;;;;;;;24.57;12.20;;;;;;;-5.60;77.89;97280.14;1751853;82;21360;-80
2020/12/03 06:21:25;;;;;;;51.23;26.97;;;;;;;-5.63;78.08;97284.47;1736649;82;21151;-79
2020/12/03 06:24:20;;;;;;;37.60;14.67;;;;;;;-5.66;77.69;97285.36;1721593;83;21155;-80
2020/12/03 06:27:12;;;;;;;52.53;27.30;;;;;;;-5.58;77.85;97280.11;1784569;80;21175;-79
2020/12/03 06:29:59;;;;;;;48.47;25.63;;;;;;;-5.55;77.74;97286.05;1787843;80;21273;-78
2020/12/03 06:33:01;;;;;;;54.08;28.25;;;;;;;-5.42;78.16;97286.73;1852506;77;24810;-78
2020/12/03 06:35:39;;;;;;;54.60;26.20;;;;;;;-5.42;77.66;97291.04;1831683;77;21137;-81
2020/12/03 06:38:34;;;;;;;49.80;26.73;;;;;;;-5.37;77.65;97278.97;1807020;78;21165;-79
2020/12/03 06:41:39;;;;;;;56.30;28.45;;;;;;;-5.27;78.12;97286.13;1824070;79;24230;-78
2020/12/03 06:44:40;;;;;;;55.03;27.87;;;;;;;-5.19;78.07;97289.44;1797255;80;21307;-78
2020/12/03 06:47:37;;;;;;;29.00;14.37;;;;;;;-5.07;77.64;97299.97;1796356;78;21582;-79
2020/12/03 06:50:15;;;;;;;50.35;28.20;;;;;;;-5.07;77.69;97305.98;1784048;80;21160;-79
2020/12/03 06:52:57;;;;;;;32.43;16.80;;;;;;;-5.08;77.76;97292.71;1744875;81;21149;-79
2020/12/03 06:55:52;;;;;;;35.70;19.27;;;;;;;-4.99;77.88;97287.84;1813583;78;21577;-79
2020/12/03 06:58:31;;;;;;;57.03;28.77;;;;;;;-4.96;77.76;97278.81;1813142;78;21719;-81
2020/12/03 07:01:44;;;;;;;39.37;18.70;;;;;;;-4.94;77.81;97280.06;1784109;80;21129;-80
2020/12/03 07:04:52;;;;;;;52.50;27.10;;;;;;;-4.86;77.82;97272.66;1758130;80;21149;-78
2020/12/03 07:08:09;;;;;;;60.93;28.93;;;;;;;-4.83;77.75;97264.48;1794593;78;21602;-78
2020/12/03 07:11:25;;;;;;;50.47;27.63;;;;;;;-4.75;77.84;97259.61;1796745;79;21152;-78
2020/12/03 07:14:35;;;;;;;51.10;25.70;;;;;;;-4.65;77.84;97272.32;1726082;83;21321;-77
2020/12/03 07:18:01;;;;;;;53.07;28.80;;;;;;;-4.48;77.78;97275.91;1715627;83;21150;-80
2020/12/03 07:20:43;;;;;;;50.73;25.23;;;;;;;-4.30;78.16;97273.00;1694909;84;21149;-82
2020/12/03 07:23:18;;;;;;;53.57;30.70;;;;;;;-4.08;77.59;97268.30;1635247;83;21169;-78
2020/12/03 07:25:47;;;;;;;;;;;;;;;-3.90;77.64;97267.53;1704894;84;21605;-80
2020/12/03 07:28:23;;;;;;;59.00;28.07;;;;;;;-3.75;77.34;97265.09;1703262;83;20136;-79
2020/12/03 07:30:56;;;;;;;29.67;14.63;;;;;;;-3.64;77.51;97262.28;1702973;84;21153;-79
2020/12/03 07:33:53;;;;;;;36.13;18.70;;;;;;;-3.44;76.96;97256.73;1702828;84;21194;-81
2020/12/03 07:37:05;;;;;;;38.53;19.57;;;;;;;-3.43;76.83;97257.11;1702918;84;21176;-79
2020/12/03 07:39:36;;;;;;;44.80;23.67;;;;;;;-3.41;76.81;97251.94;1702915;84;21148;-79
2020/12/03 07:42:15;;;;;;;42.80;20.63;;;;;;;-3.31;76.82;97234.10;1702511;84;21133;-79
2020/12/03 07:44:50;;;;;;;32.33;17.07;;;;;;;-3.22;76.85;97241.63;1699551;84;21188;-81
2020/12/03 07:47:30;;;;;;;61.73;27.90;;;;;;;-3.12;76.79;97238.84;1702450;84;21193;-78
2020/12/03 07:49:55;;;;;;;50.33;26.23;;;;;;;-2.96;76.90;97243.17;1702470;84;21138;-80
2020/12/03 07:52:31;;;;;;;49.53;24.73;;;;;;;-2.92;76.46;97232.73;1702152;84;21148;-80
2020/12/03 07:55:24;;;;;;;42.85;20.15;;;;;;;-2.82;76.65;97226.47;1702299;84;21314;-80
2020/12/03 07:57:58;;;;;;;35.67;18.70;;;;;;;-2.75;76.20;97227.64;1681854;84;21176;-78
2020/12/03 08:00:46;;;;;;;42.23;21.50;;;;;;;-2.63;76.36;97228.59;1702125;84;21733;-81
2020/12/03 08:03:42;;;;;;;43.40;25.40;;;;;;;-2.57;76.23;97230.17;1684049;84;21148;-79
2020/12/03 08:06:32;;;;;;;47.23;26.90;;;;;;;-2.49;75.66;97213.21;1702215;84;21188;-79
2020/12/03 08:09:07;;;;;;;52.13;28.73;;;;;;;-2.37;76.19;97210.31;1701904;84;21257;-80
2020/12/03 08:12:02;;;;;;;30.60;17.80;;;;;;;-2.22;76.10;97216.35;1701612;84;21173;-81
2020/12/03 08:14:37;;;;;;;31.77;17.27;;;;;;;-2.10;75.80;97223.37;1701685;84;21318;-78
2020/12/03 08:17:27;;;;;;;32.23;15.10;;;;;;;-2.05;75.82;97225.36;1701614;84;21535;-81
2020/12/03 08:20:09;;;;;;;36.07;21.93;;;;;;;-2.07;75.93;97228.00;1701944;84;21168;-81
2020/12/03 08:22:44;;;;;;;35.37;17.70;;;;;;;-2.15;76.12;97209.28;1702163;84;21169;-80
2020/12/03 08:25:24;;;;;;;33.63;16.30;;;;;;;-2.06;76.51;97217.21;1701982;84;21161;-77
2020/12/03 08:28:01;;;;;;;42.13;23.50;;;;;;;-2.01;76.70;97208.91;1701952;84;21681;-80
2020/12/03 08:33:29;;;;;;;41.02;23.87;;;;;;;-1.69;76.87;97222.62;1824898;77;24588;-80
2020/12/03 08:36:03;;;;;;;41.83;24.57;;;;;;;-1.60;77.11;97212.02;1829154;78;21319;-80
2020/12/03 08:38:36;;;;;;;43.83;24.40;;;;;;;-1.32;76.72;97205.17;1829054;78;21333;-84
2020/12/03 08:41:14;;;;;;;39.33;24.33;;;;;;;-1.11;76.58;97193.30;1828661;78;21289;-83
2020/12/03 08:43:50;;;;;;;40.97;24.53;;;;;;;-0.90;76.49;97202.11;1760508;81;21172;-83
2020/12/03 08:46:19;;;;;;;40.40;25.70;;;;;;;-0.67;76.24;97203.11;1771824;81;21313;-81
2020/12/03 08:48:43;;;;;;;42.57;22.83;;;;;;;-0.49;75.63;97198.59;1763066;81;21262;-81
2020/12/03 08:51:13;;;;;;;46.57;24.57;;;;;;;-0.30;75.23;97190.19;1773985;81;21684;-81
2020/12/03 08:53:53;;;;;;;26.50;14.80;;;;;;;-0.13;75.12;97186.15;1770880;81;21675;-88
2020/12/03 08:56:39;;;;;;;35.70;20.63;;;;;;;-0.03;73.98;97184.45;1771199;81;21568;-85
2020/12/03 08:59:09;;;;;;;;;;;;;;;-0.03;74.00;97184.92;1776351;81;21274;-83
2020/12/03 09:01:45;;;;;;;36.50;21.37;;;;;;;0.03;73.88;97163.13;1743063;81;20422;-85
2020/12/03 09:04:18;;;;;;;34.20;21.07;;;;;;;0.15;73.55;97157.45;1769096;81;21754;-83
2020/12/03 09:06:50;;;;;;;25.30;14.20;;;;;;;0.24;73.62;97166.19;1773654;81;21298;-82
2020/12/03 09:09:21;;;;;;;34.00;21.70;;;;;;;0.27;73.35;97155.71;1773801;81;21266;-81
2020/12/03 09:11:51;;;;;;;41.30;23.60;;;;;;;0.40;73.37;97156.55;1757620;81;21385;-80
2020/12/03 09:14:20;;;;;;;42.25;23.55;;;;;;;0.60;73.55;97138.91;1739972;82;21316;-85
2020/12/03 09:16:54;;;;;;;18.80;10.58;;;;;;;0.78;73.48;97133.45;1742979;82;21265;-81
2020/12/03 09:19:26;;;;;;;20.80;10.72;;;;;;;0.82;72.20;97133.70;1740090;82;21143;-84
2020/12/03 09:21:56;;;;;;;32.23;20.20;;;;;;;0.87;71.97;97136.97;1740304;82;21560;-85
2020/12/03 09:24:26;;;;;;;35.03;21.40;;;;;;;0.95;72.37;97142.29;1743242;82;21265;-85
2020/12/03 09:27:04;;;;;;;26.55;13.40;;;;;;;0.99;72.27;97138.64;1740325;82;21173;-85
2020/12/03 09:29:31;;;;;;;26.02;14.93;;;;;;;1.04;71.50;97142.75;1739937;82;21146;-86
2020/12/03 09:32:04;;;;;;;36.25;18.80;;;;;;;1.01;71.94;97135.11;1729533;82;21604;-86
2020/12/03 09:34:35;;;;;;;23.07;12.10;;;;;;;1.04;71.10;97125.04;1721635;83;21167;-82
2020/12/03 09:37:04;;;;;;;31.48;18.70;;;;;;;1.05;70.62;97118.94;1721766;83;21143;-81
2020/12/03 09:39:34;;;;;;;32.60;21.30;;;;;;;1.06;70.55;97114.14;1721314;83;21163;-82
2020/12/03 09:42:04;;;;;;;22.80;11.95;;;;;;;1.14;71.17;97116.40;1721474;83;21592;-82
2020/12/03 09:44:35;;;;;;;28.02;13.05;;;;;;;1.21;70.11;97107.44;1717719;83;21148;-84
2020/12/03 09:47:16;;;;;;;29.15;16.57;;;;;;;1.27;69.94;97107.63;1717692;83;21155;-86
2020/12/03 09:49:45;;;;;;;33.55;19.45;;;;;;;1.23;69.80;97110.38;1693714;83;21636;-84
2020/12/03 09:52:15;;;;;;;28.35;15.90;;;;;;;1.25;69.73;97102.05;1717740;83;21179;-88
2020/12/03 09:54:43;;;;;;;39.10;14.33;;;;;;;1.25;69.85;97108.53;1696790;83;21277;-84
2020/12/03 09:57:12;;;;;;;26.52;15.88;;;;;;;1.22;68.64;97094.41;1717892;83;21174;-85
2020/12/03 09:59:41;;;;;;;29.98;18.25;;;;;;;1.28;69.25;97089.84;1717714;83;21240;-85
2020/12/03 10:02:18;;;;;;;21.67;11.27;;;;;;;1.29;69.51;97094.99;1737740;83;21158;-85
2020/12/03 10:05:02;;;;;;;;;;;;;;;1.36;69.40;97092.95;1738117;83;21288;-84
2020/12/03 10:08:02;;;;;;;26.17;12.40;;;;;;;1.39;68.91;97091.06;1733538;83;20137;-83
2020/12/03 10:10:57;;;;;;;33.92;18.73;;;;;;;1.38;68.91;97085.51;1737435;83;21119;-83
2020/12/03 10:13:45;;;;;;;27.17;13.78;;;;;;;1.40;68.92;97084.13;1735318;83;21146;-83
2020/12/03 10:16:21;;;;;;;23.40;13.03;;;;;;;1.49;68.37;97072.47;1736585;83;21608;-85
2020/12/03 10:19:03;;;;;;;27.32;16.00;;;;;;;1.65;68.63;97067.45;1824054;77;24178;-83
2020/12/03 10:21:36;;;;;;;29.48;18.05;;;;;;;1.71;68.82;97071.09;1831095;78;21290;-83
2020/12/03 10:24:19;;;;;;;30.08;14.63;;;;;;;1.84;67.99;97063.58;1829979;78;21289;-81
2020/12/03 10:27:04;;;;;;;24.18;12.70;;;;;;;1.99;67.04;97068.53;1792343;80;21530;-83
2020/12/03 10:29:42;;;;;;;27.58;16.87;;;;;;;2.11;67.15;97057.54;1757797;81;21171;-82
2020/12/03 10:32:17;;;;;;;34.40;17.73;;;;;;;2.25;67.12;97047.79;1770364;81;21163;-81
2020/12/03 10:34:47;;;;;;;26.12;12.80;;;;;;;2.36;66.43;97038.63;1742251;81;21148;-83
2020/12/03 10:37:46;;;;;;;21.05;12.35;;;;;;;2.49;65.79;97036.66;1770391;81;21625;-84
2020/12/03 10:40:19;;;;;;;27.65;14.50;;;;;;;2.57;64.84;97035.44;1770322;81;21190;-82
2020/12/03 10:43:08;;;;;;;27.25;16.23;;;;;;;2.66;65.64;97042.80;1770750;81;21116;-80
2020/12/03 10:45:40;;;;;;;34.92;17.10;;;;;;;2.75;64.16;97039.73;1770390;81;21293;-83
2020/12/03 10:48:19;;;;;;;33.75;16.02;;;;;;;2.86;63.33;97035.76;1770446;81;21629;-84
2020/12/03 10:51:09;;;;;;;34.18;16.25;;;;;;;2.87;62.95;97038.75;1771824;81;21325;-81
2020/12/03 10:53:38;;;;;;;24.85;13.50;;;;;;;2.91;63.98;97035.91;1771646;81;21167;-80
2020/12/03 10:56:08;;;;;;;19.50;10.55;;;;;;;2.95;60.73;97030.09;1770292;81;21266;-81
2020/12/03 11:01:37;;;;;;;24.35;12.15;;;;;;;2.89;60.40;97027.33;1824175;77;23668;-83
2020/12/03 11:04:10;;;;;;;21.27;11.95;;;;;;;2.89;61.59;97016.09;1825157;78;21144;-81
2020/12/03 11:06:38;;;;;;;33.38;16.97;;;;;;;2.83;61.05;97021.61;1793287;80;21131;-80
2020/12/03 11:09:05;;;;;;;22.13;10.38;;;;;;;2.74;62.04;97011.19;1761935;81;21522;-82
2020/12/03 11:11:38;;;;;;;30.90;15.83;;;;;;;2.78;61.33;97016.16;1743283;81;21159;-86
2020/12/03 11:14:10;;;;;;;26.20;15.88;;;;;;;2.75;61.32;97006.37;1792757;80;21116;-85
2020/12/03 11:16:44;;;;;;;24.32;12.68;;;;;;;2.75;60.66;96999.39;1771318;81;21613;-84
2020/12/03 11:19:16;;;;;;;35.92;16.35;;;;;;;2.79;61.67;97001.38;1788967;80;21755;-83
2020/12/03 11:22:07;;;;;;;16.27;9.90;;;;;;;2.77;61.14;96996.73;1770682;81;21139;-84
2020/12/03 11:24:51;;;;;;;25.57;14.28;;;;;;;2.77;61.67;96996.25;1772105;81;21290;-83
2020/12/03 11:27:21;;;;;;;17.98;9.08;;;;;;;2.69;61.60;96996.27;1793267;80;21274;-81
2020/12/03 11:29:49;;;;;;;34.53;17.85;;;;;;;2.71;61.80;96986.60;1770330;81;21262;-83
2020/12/03 11:32:24;;;;;;;30.82;16.87;;;;;;;2.70;60.77;96988.38;1791950;80;21657;-83
2020/12/03 11:34:53;;;;;;;30.50;16.57;;;;;;;2.67;61.46;96979.41;1771992;81;21274;-82
2020/12/03 11:37:25;;;;;;;28.42;16.12;;;;;;;2.73;62.42;96978.27;1791850;80;21260;-81
2020/12/03 11:40:06;;;;;;;31.25;17.00;;;;;;;2.72;61.80;96985.69;1770494;81;21211;-82
2020/12/03 11:42:42;;;;;;;30.85;18.40;;;;;;;2.73;61.39;96970.45;1792499;80;21668;-84
2020/12/03 11:50:38;;;;;;;36.77;17.60;;;;;;;2.58;60.59;96966.42;1792031;80;21278;-81
2020/12/03 11:53:06;;;;;;;34.38;15.68;;;;;;;2.63;61.36;96958.38;1770397;81;21291;-81
2020/12/03 11:55:39;;;;;;;34.98;15.98;;;;;;;2.64;60.98;96954.86;1791815;80;21714;-83
2020/12/03 11:58:09;;;;;;;28.20;13.53;;;;;;;2.67;61.44;96954.69;1770330;81;21361;-85
2020/12/03 12:00:37;;;;;;;36.98;18.73;;;;;;;2.64;61.02;96943.16;1786363;80;21585;-84
2020/12/03 12:03:11;;;;;;;27.75;13.20;;;;;;;2.58;61.36;96935.64;1820504;79;21136;-86
2020/12/03 12:08:31;;;;;;;26.85;11.97;;;;;;;2.45;61.53;96933.67;1821202;78;21274;-83
2020/12/03 12:11:04;;;;;;;31.27;14.38;;;;;;;2.41;61.73;96939.11;1820311;79;21267;-87
2020/12/03 12:13:28;;;;;;;30.47;13.03;;;;;;;2.39;61.94;96938.33;1820792;79;21258;-84
2020/12/03 12:15:55;;;;;;;27.98;14.45;;;;;;;2.38;61.98;96935.34;1820827;78;21235;-82